sensor_id;sensor_type;location;lat;lon;timestamp;P1;durP1;ratioP1;P2;durP2;ratioP2
12814;SDS011;6472;52.328;13.070;2024-03-22T00:00:07;19.37;;;11.50;;
12814;SDS011;6472;52.328;13.070;2024-03-22T00:02:36;22.90;;;12.93;;
12814;SDS011;6472;52.328;13.070;2024-03-22T00:05:03;19.80;;;11.83;;
12814;SDS011;6472;52.328;13.070;2024-03-22T00:07:30;23.50;;;12.13;;
12814;SDS011;6472;52.328;13.070;2024-03-22T00:09:56;20.13;;;11.37;;
12814;SDS011;6472;52.328;13.070;2024-03-22T00:12:23;22.50;;;12.67;;
12814;SDS011;6472;52.328;13.070;2024-03-22T00:14:49;24.30;;;11.60;;
12814;SDS011;6472;52.328;13.070;2024-03-22T00:17:21;21.03;;;11.87;;
12814;SDS011;6472;52.328;13.070;2024-03-22T00:19:47;20.57;;;10.77;;
12814;SDS011;6472;52.328;13.070;2024-03-22T00:22:14;25.63;;;12.03;;
12814;SDS011;6472;52.328;13.070;2024-03-22T00:24:40;20.77;;;11.20;;
12814;SDS011;6472;52.328;13.070;2024-03-22T00:27:07;21.83;;;12.13;;
12814;SDS011;6472;52.328;13.070;2024-03-22T00:29:34;24.03;;;11.63;;
12814;SDS011;6472;52.328;13.070;2024-03-22T00:32:01;24.67;;;13.03;;
12814;SDS011;6472;52.328;13.070;2024-03-22T00:34:30;22.60;;;12.93;;
12814;SDS011;6472;52.328;13.070;2024-03-22T00:36:57;20.57;;;12.13;;
12814;SDS011;6472;52.328;13.070;2024-03-22T00:39:23;22.60;;;11.87;;
12814;SDS011;6472;52.328;13.070;2024-03-22T00:41:50;19.87;;;11.97;;
12814;SDS011;6472;52.328;13.070;2024-03-22T00:44:16;19.60;;;11.53;;
12814;SDS011;6472;52.328;13.070;2024-03-22T00:46:44;22.40;;;12.33;;
12814;SDS011;6472;52.328;13.070;2024-03-22T00:49:09;23.73;;;12.97;;
12814;SDS011;6472;52.328;13.070;2024-03-22T00:51:38;23.93;;;12.67;;
12814;SDS011;6472;52.328;13.070;2024-03-22T00:54:04;32.63;;;14.10;;
12814;SDS011;6472;52.328;13.070;2024-03-22T00:56:31;25.30;;;12.13;;
12814;SDS011;6472;52.328;13.070;2024-03-22T00:58:57;24.17;;;13.23;;
12814;SDS011;6472;52.328;13.070;2024-03-22T01:01:24;27.20;;;13.27;;
12814;SDS011;6472;52.328;13.070;2024-03-22T01:03:50;25.57;;;12.53;;
12814;SDS011;6472;52.328;13.070;2024-03-22T01:06:17;24.40;;;12.77;;
12814;SDS011;6472;52.328;13.070;2024-03-22T01:08:50;22.53;;;11.87;;
12814;SDS011;6472;52.328;13.070;2024-03-22T01:11:17;22.43;;;12.30;;
12814;SDS011;6472;52.328;13.070;2024-03-22T01:13:43;21.43;;;11.80;;
12814;SDS011;6472;52.328;13.070;2024-03-22T01:16:11;28.60;;;12.17;;
12814;SDS011;6472;52.328;13.070;2024-03-22T01:18:37;23.70;;;11.53;;
12814;SDS011;6472;52.328;13.070;2024-03-22T01:21:04;26.60;;;12.73;;
12814;SDS011;6472;52.328;13.070;2024-03-22T01:23:30;27.23;;;12.40;;
12814;SDS011;6472;52.328;13.070;2024-03-22T01:25:59;21.90;;;11.27;;
12814;SDS011;6472;52.328;13.070;2024-03-22T01:28:25;24.87;;;12.73;;
12814;SDS011;6472;52.328;13.070;2024-03-22T01:30:52;25.77;;;12.70;;
12814;SDS011;6472;52.328;13.070;2024-03-22T01:33:18;26.93;;;12.90;;
12814;SDS011;6472;52.328;13.070;2024-03-22T01:35:45;24.60;;;12.37;;
12814;SDS011;6472;52.328;13.070;2024-03-22T01:38:11;25.50;;;13.40;;
12814;SDS011;6472;52.328;13.070;2024-03-22T01:40:38;26.73;;;12.53;;
12814;SDS011;6472;52.328;13.070;2024-03-22T01:43:05;24.23;;;13.10;;
12814;SDS011;6472;52.328;13.070;2024-03-22T01:45:32;24.27;;;11.70;;
12814;SDS011;6472;52.328;13.070;2024-03-22T01:47:59;25.70;;;12.77;;
12814;SDS011;6472;52.328;13.070;2024-03-22T01:50:27;24.57;;;12.67;;
12814;SDS011;6472;52.328;13.070;2024-03-22T01:52:53;22.03;;;11.23;;
12814;SDS011;6472;52.328;13.070;2024-03-22T01:55:21;21.97;;;10.93;;
12814;SDS011;6472;52.328;13.070;2024-03-22T01:57:47;24.93;;;11.83;;
12814;SDS011;6472;52.328;13.070;2024-03-22T02:00:17;25.30;;;12.00;;
12814;SDS011;6472;52.328;13.070;2024-03-22T02:02:43;23.13;;;11.70;;
12814;SDS011;6472;52.328;13.070;2024-03-22T02:05:13;24.33;;;12.57;;
12814;SDS011;6472;52.328;13.070;2024-03-22T02:07:41;25.40;;;12.30;;
12814;SDS011;6472;52.328;13.070;2024-03-22T02:10:08;22.93;;;11.63;;
12814;SDS011;6472;52.328;13.070;2024-03-22T02:12:36;25.43;;;12.77;;
12814;SDS011;6472;52.328;13.070;2024-03-22T02:15:03;22.37;;;11.50;;
12814;SDS011;6472;52.328;13.070;2024-03-22T02:17:31;22.90;;;11.67;;
12814;SDS011;6472;52.328;13.070;2024-03-22T02:19:59;24.47;;;10.33;;
12814;SDS011;6472;52.328;13.070;2024-03-22T02:22:25;21.97;;;10.73;;
12814;SDS011;6472;52.328;13.070;2024-03-22T02:24:54;25.13;;;12.67;;
12814;SDS011;6472;52.328;13.070;2024-03-22T02:27:20;27.67;;;12.30;;
12814;SDS011;6472;52.328;13.070;2024-03-22T02:29:47;27.70;;;12.00;;
12814;SDS011;6472;52.328;13.070;2024-03-22T02:32:13;27.50;;;12.60;;
12814;SDS011;6472;52.328;13.070;2024-03-22T02:34:40;23.53;;;12.10;;
12814;SDS011;6472;52.328;13.070;2024-03-22T02:37:06;22.03;;;11.40;;
12814;SDS011;6472;52.328;13.070;2024-03-22T02:39:33;21.73;;;11.63;;
12814;SDS011;6472;52.328;13.070;2024-03-22T02:42:00;21.23;;;10.93;;
12814;SDS011;6472;52.328;13.070;2024-03-22T02:44:27;21.00;;;10.90;;
12814;SDS011;6472;52.328;13.070;2024-03-22T02:46:53;24.97;;;12.00;;
12814;SDS011;6472;52.328;13.070;2024-03-22T02:49:20;23.57;;;10.83;;
12814;SDS011;6472;52.328;13.070;2024-03-22T02:51:46;25.30;;;12.43;;
12814;SDS011;6472;52.328;13.070;2024-03-22T02:54:13;24.17;;;11.67;;
12814;SDS011;6472;52.328;13.070;2024-03-22T02:56:39;25.07;;;10.90;;
12814;SDS011;6472;52.328;13.070;2024-03-22T02:59:08;27.23;;;12.37;;
12814;SDS011;6472;52.328;13.070;2024-03-22T03:01:34;27.50;;;13.07;;
12814;SDS011;6472;52.328;13.070;2024-03-22T03:04:01;22.43;;;11.10;;
12814;SDS011;6472;52.328;13.070;2024-03-22T03:06:27;22.43;;;11.60;;
12814;SDS011;6472;52.328;13.070;2024-03-22T03:08:54;19.33;;;9.57;;
12814;SDS011;6472;52.328;13.070;2024-03-22T03:11:20;22.70;;;11.67;;
12814;SDS011;6472;52.328;13.070;2024-03-22T03:13:47;22.27;;;10.77;;
12814;SDS011;6472;52.328;13.070;2024-03-22T03:16:14;21.73;;;10.73;;
12814;SDS011;6472;52.328;13.070;2024-03-22T03:18:42;21.93;;;11.00;;
12814;SDS011;6472;52.328;13.070;2024-03-22T03:21:08;21.87;;;12.23;;
12814;SDS011;6472;52.328;13.070;2024-03-22T03:23:35;21.47;;;11.10;;
12814;SDS011;6472;52.328;13.070;2024-03-22T03:26:01;21.63;;;11.03;;
12814;SDS011;6472;52.328;13.070;2024-03-22T03:28:28;20.03;;;10.43;;
12814;SDS011;6472;52.328;13.070;2024-03-22T03:30:54;21.20;;;10.93;;
12814;SDS011;6472;52.328;13.070;2024-03-22T03:33:22;20.40;;;11.07;;
12814;SDS011;6472;52.328;13.070;2024-03-22T03:35:48;20.20;;;11.03;;
12814;SDS011;6472;52.328;13.070;2024-03-22T03:38:15;23.57;;;10.60;;
12814;SDS011;6472;52.328;13.070;2024-03-22T03:40:41;23.73;;;10.87;;
12814;SDS011;6472;52.328;13.070;2024-03-22T03:43:08;24.77;;;11.57;;
12814;SDS011;6472;52.328;13.070;2024-03-22T03:45:35;21.80;;;10.33;;
12814;SDS011;6472;52.328;13.070;2024-03-22T03:48:03;23.47;;;10.77;;
12814;SDS011;6472;52.328;13.070;2024-03-22T03:50:30;23.30;;;11.50;;
12814;SDS011;6472;52.328;13.070;2024-03-22T03:52:58;21.27;;;10.97;;
12814;SDS011;6472;52.328;13.070;2024-03-22T03:55:24;18.23;;;10.53;;
12814;SDS011;6472;52.328;13.070;2024-03-22T03:57:51;21.30;;;10.57;;
12814;SDS011;6472;52.328;13.070;2024-03-22T04:00:18;21.57;;;10.40;;
12814;SDS011;6472;52.328;13.070;2024-03-22T04:02:46;17.77;;;9.60;;
12814;SDS011;6472;52.328;13.070;2024-03-22T04:05:14;20.33;;;10.57;;
12814;SDS011;6472;52.328;13.070;2024-03-22T04:07:46;27.27;;;11.60;;
12814;SDS011;6472;52.328;13.070;2024-03-22T04:10:12;23.97;;;10.30;;
12814;SDS011;6472;52.328;13.070;2024-03-22T04:12:39;25.00;;;11.20;;
12814;SDS011;6472;52.328;13.070;2024-03-22T04:15:06;21.83;;;10.60;;
12814;SDS011;6472;52.328;13.070;2024-03-22T04:17:34;22.67;;;11.20;;
12814;SDS011;6472;52.328;13.070;2024-03-22T04:20:00;20.53;;;10.00;;
12814;SDS011;6472;52.328;13.070;2024-03-22T04:22:27;23.73;;;10.33;;
12814;SDS011;6472;52.328;13.070;2024-03-22T04:24:55;19.27;;;9.90;;
12814;SDS011;6472;52.328;13.070;2024-03-22T04:27:22;29.20;;;11.33;;
12814;SDS011;6472;52.328;13.070;2024-03-22T04:29:48;18.90;;;10.37;;
12814;SDS011;6472;52.328;13.070;2024-03-22T04:32:15;22.07;;;10.47;;
12814;SDS011;6472;52.328;13.070;2024-03-22T04:34:41;19.00;;;9.87;;
12814;SDS011;6472;52.328;13.070;2024-03-22T04:37:08;21.73;;;10.23;;
12814;SDS011;6472;52.328;13.070;2024-03-22T04:39:36;20.83;;;9.83;;
12814;SDS011;6472;52.328;13.070;2024-03-22T04:42:05;19.10;;;10.10;;
12814;SDS011;6472;52.328;13.070;2024-03-22T04:44:32;20.83;;;9.77;;
12814;SDS011;6472;52.328;13.070;2024-03-22T04:46:59;19.07;;;10.13;;
12814;SDS011;6472;52.328;13.070;2024-03-22T04:49:25;22.43;;;9.50;;
12814;SDS011;6472;52.328;13.070;2024-03-22T04:51:52;17.93;;;9.63;;
12814;SDS011;6472;52.328;13.070;2024-03-22T04:54:19;18.00;;;9.77;;
12814;SDS011;6472;52.328;13.070;2024-03-22T04:56:45;19.37;;;9.33;;
12814;SDS011;6472;52.328;13.070;2024-03-22T04:59:13;15.23;;;9.30;;
12814;SDS011;6472;52.328;13.070;2024-03-22T05:01:39;20.13;;;10.90;;
12814;SDS011;6472;52.328;13.070;2024-03-22T05:04:06;17.50;;;10.00;;
12814;SDS011;6472;52.328;13.070;2024-03-22T05:06:32;17.03;;;9.53;;
12814;SDS011;6472;52.328;13.070;2024-03-22T05:08:59;18.13;;;9.47;;
12814;SDS011;6472;52.328;13.070;2024-03-22T05:11:25;17.80;;;8.93;;
12814;SDS011;6472;52.328;13.070;2024-03-22T05:13:52;16.67;;;9.27;;
12814;SDS011;6472;52.328;13.070;2024-03-22T05:16:20;22.20;;;10.70;;
12814;SDS011;6472;52.328;13.070;2024-03-22T05:18:49;20.27;;;10.47;;
12814;SDS011;6472;52.328;13.070;2024-03-22T05:21:15;19.07;;;10.17;;
12814;SDS011;6472;52.328;13.070;2024-03-22T05:23:43;22.17;;;10.97;;
12814;SDS011;6472;52.328;13.070;2024-03-22T05:26:09;26.80;;;11.67;;
12814;SDS011;6472;52.328;13.070;2024-03-22T05:28:36;22.90;;;11.07;;
12814;SDS011;6472;52.328;13.070;2024-03-22T05:31:02;27.07;;;12.60;;
12814;SDS011;6472;52.328;13.070;2024-03-22T05:33:30;24.47;;;11.60;;
12814;SDS011;6472;52.328;13.070;2024-03-22T05:35:57;20.73;;;11.30;;
12814;SDS011;6472;52.328;13.070;2024-03-22T05:38:24;26.23;;;12.80;;
12814;SDS011;6472;52.328;13.070;2024-03-22T05:40:50;22.00;;;10.93;;
12814;SDS011;6472;52.328;13.070;2024-03-22T05:43:17;22.73;;;11.07;;
12814;SDS011;6472;52.328;13.070;2024-03-22T05:45:43;23.93;;;11.50;;
12814;SDS011;6472;52.328;13.070;2024-03-22T05:48:10;20.90;;;11.10;;
12814;SDS011;6472;52.328;13.070;2024-03-22T05:50:37;22.50;;;10.87;;
12814;SDS011;6472;52.328;13.070;2024-03-22T05:53:04;24.43;;;11.67;;
12814;SDS011;6472;52.328;13.070;2024-03-22T05:55:30;21.43;;;11.67;;
12814;SDS011;6472;52.328;13.070;2024-03-22T05:57:57;23.00;;;12.50;;
12814;SDS011;6472;52.328;13.070;2024-03-22T06:00:23;21.70;;;12.17;;
12814;SDS011;6472;52.328;13.070;2024-03-22T06:02:51;22.80;;;12.17;;
12814;SDS011;6472;52.328;13.070;2024-03-22T06:05:17;24.10;;;11.63;;
12814;SDS011;6472;52.328;13.070;2024-03-22T06:07:46;24.90;;;13.07;;
12814;SDS011;6472;52.328;13.070;2024-03-22T06:10:12;20.73;;;11.97;;
12814;SDS011;6472;52.328;13.070;2024-03-22T06:12:39;22.87;;;11.97;;
12814;SDS011;6472;52.328;13.070;2024-03-22T06:15:06;24.40;;;11.27;;
12814;SDS011;6472;52.328;13.070;2024-03-22T06:17:33;20.43;;;11.67;;
12814;SDS011;6472;52.328;13.070;2024-03-22T06:19:59;20.80;;;10.67;;
12814;SDS011;6472;52.328;13.070;2024-03-22T06:22:27;21.27;;;11.37;;
12814;SDS011;6472;52.328;13.070;2024-03-22T06:24:54;22.70;;;11.67;;
12814;SDS011;6472;52.328;13.070;2024-03-22T06:27:21;22.00;;;12.43;;
12814;SDS011;6472;52.328;13.070;2024-03-22T06:29:47;21.30;;;11.90;;
12814;SDS011;6472;52.328;13.070;2024-03-22T06:32:15;19.87;;;11.93;;
12814;SDS011;6472;52.328;13.070;2024-03-22T06:34:41;25.13;;;11.33;;
12814;SDS011;6472;52.328;13.070;2024-03-22T06:37:08;21.63;;;11.33;;
12814;SDS011;6472;52.328;13.070;2024-03-22T06:39:34;20.30;;;11.40;;
12814;SDS011;6472;52.328;13.070;2024-03-22T06:42:03;20.83;;;11.27;;
12814;SDS011;6472;52.328;13.070;2024-03-22T06:44:29;21.23;;;12.47;;
12814;SDS011;6472;52.328;13.070;2024-03-22T06:46:57;21.43;;;11.10;;
12814;SDS011;6472;52.328;13.070;2024-03-22T06:49:23;22.67;;;11.77;;
12814;SDS011;6472;52.328;13.070;2024-03-22T06:51:50;22.77;;;12.00;;
12814;SDS011;6472;52.328;13.070;2024-03-22T06:54:16;21.50;;;11.93;;
12814;SDS011;6472;52.328;13.070;2024-03-22T06:56:43;18.83;;;11.37;;
12814;SDS011;6472;52.328;13.070;2024-03-22T06:59:11;24.27;;;12.00;;
12814;SDS011;6472;52.328;13.070;2024-03-22T07:01:38;21.33;;;11.70;;
12814;SDS011;6472;52.328;13.070;2024-03-22T07:04:04;22.67;;;12.87;;
12814;SDS011;6472;52.328;13.070;2024-03-22T07:06:31;23.03;;;13.87;;
12814;SDS011;6472;52.328;13.070;2024-03-22T07:08:57;23.17;;;12.33;;
12814;SDS011;6472;52.328;13.070;2024-03-22T07:11:23;21.87;;;12.50;;
12814;SDS011;6472;52.328;13.070;2024-03-22T07:13:49;19.70;;;11.97;;
12814;SDS011;6472;52.328;13.070;2024-03-22T07:16:18;25.47;;;13.63;;
12814;SDS011;6472;52.328;13.070;2024-03-22T07:18:44;23.43;;;13.27;;
12814;SDS011;6472;52.328;13.070;2024-03-22T07:21:13;24.83;;;12.87;;
12814;SDS011;6472;52.328;13.070;2024-03-22T07:23:39;23.57;;;13.43;;
12814;SDS011;6472;52.328;13.070;2024-03-22T07:26:06;23.23;;;13.13;;
12814;SDS011;6472;52.328;13.070;2024-03-22T07:28:33;19.33;;;11.63;;
12814;SDS011;6472;52.328;13.070;2024-03-22T07:31:00;23.67;;;13.20;;
12814;SDS011;6472;52.328;13.070;2024-03-22T07:33:27;23.63;;;13.03;;
12814;SDS011;6472;52.328;13.070;2024-03-22T07:35:54;20.17;;;11.90;;
12814;SDS011;6472;52.328;13.070;2024-03-22T07:38:21;23.47;;;12.80;;
12814;SDS011;6472;52.328;13.070;2024-03-22T07:40:48;23.13;;;12.73;;
12814;SDS011;6472;52.328;13.070;2024-03-22T07:43:14;22.70;;;12.87;;
12814;SDS011;6472;52.328;13.070;2024-03-22T07:45:42;22.63;;;12.30;;
12814;SDS011;6472;52.328;13.070;2024-03-22T07:48:08;17.87;;;11.47;;
12814;SDS011;6472;52.328;13.070;2024-03-22T07:50:37;21.97;;;11.87;;
12814;SDS011;6472;52.328;13.070;2024-03-22T07:53:03;22.43;;;11.97;;
12814;SDS011;6472;52.328;13.070;2024-03-22T07:55:30;19.50;;;12.57;;
12814;SDS011;6472;52.328;13.070;2024-03-22T07:57:56;19.83;;;11.87;;
12814;SDS011;6472;52.328;13.070;2024-03-22T08:00:23;21.50;;;12.57;;
12814;SDS011;6472;52.328;13.070;2024-03-22T08:02:50;20.03;;;11.40;;
12814;SDS011;6472;52.328;13.070;2024-03-22T08:05:17;22.93;;;12.53;;
12814;SDS011;6472;52.328;13.070;2024-03-22T08:07:44;17.70;;;11.47;;
12814;SDS011;6472;52.328;13.070;2024-03-22T08:10:11;20.87;;;12.10;;
12814;SDS011;6472;52.328;13.070;2024-03-22T08:12:37;18.60;;;11.83;;
12814;SDS011;6472;52.328;13.070;2024-03-22T08:15:05;20.20;;;11.17;;
12814;SDS011;6472;52.328;13.070;2024-03-22T08:17:31;23.03;;;11.80;;
12814;SDS011;6472;52.328;13.070;2024-03-22T08:19:58;21.23;;;12.53;;
12814;SDS011;6472;52.328;13.070;2024-03-22T08:22:25;20.13;;;12.70;;
12814;SDS011;6472;52.328;13.070;2024-03-22T08:24:53;22.77;;;11.93;;
12814;SDS011;6472;52.328;13.070;2024-03-22T08:27:21;22.27;;;12.33;;
12814;SDS011;6472;52.328;13.070;2024-03-22T08:29:47;18.70;;;10.83;;
12814;SDS011;6472;52.328;13.070;2024-03-22T08:32:14;18.67;;;10.87;;
12814;SDS011;6472;52.328;13.070;2024-03-22T08:34:40;18.23;;;10.80;;
12814;SDS011;6472;52.328;13.070;2024-03-22T08:37:07;20.83;;;12.80;;
12814;SDS011;6472;52.328;13.070;2024-03-22T08:39:34;21.20;;;11.80;;
12814;SDS011;6472;52.328;13.070;2024-03-22T08:42:03;19.60;;;12.00;;
12814;SDS011;6472;52.328;13.070;2024-03-22T08:44:30;17.03;;;10.47;;
12814;SDS011;6472;52.328;13.070;2024-03-22T08:46:57;20.80;;;10.83;;
12814;SDS011;6472;52.328;13.070;2024-03-22T08:49:23;18.87;;;11.43;;
12814;SDS011;6472;52.328;13.070;2024-03-22T08:51:50;22.07;;;11.97;;
12814;SDS011;6472;52.328;13.070;2024-03-22T08:54:16;22.77;;;11.90;;
12814;SDS011;6472;52.328;13.070;2024-03-22T08:56:43;20.97;;;11.43;;
12814;SDS011;6472;52.328;13.070;2024-03-22T08:59:11;19.37;;;10.90;;
12814;SDS011;6472;52.328;13.070;2024-03-22T09:01:38;17.03;;;11.47;;
12814;SDS011;6472;52.328;13.070;2024-03-22T09:04:04;18.80;;;11.63;;
12814;SDS011;6472;52.328;13.070;2024-03-22T09:06:31;17.57;;;10.43;;
12814;SDS011;6472;52.328;13.070;2024-03-22T09:08:57;19.90;;;11.90;;
12814;SDS011;6472;52.328;13.070;2024-03-22T09:11:24;19.73;;;11.77;;
12814;SDS011;6472;52.328;13.070;2024-03-22T09:13:51;20.87;;;11.37;;
12814;SDS011;6472;52.328;13.070;2024-03-22T09:16:20;18.30;;;12.27;;
12814;SDS011;6472;52.328;13.070;2024-03-22T09:18:47;16.43;;;10.67;;
12814;SDS011;6472;52.328;13.070;2024-03-22T09:21:13;17.27;;;10.87;;
12814;SDS011;6472;52.328;13.070;2024-03-22T09:23:41;22.10;;;11.77;;
12814;SDS011;6472;52.328;13.070;2024-03-22T09:26:07;19.63;;;11.40;;
12814;SDS011;6472;52.328;13.070;2024-03-22T09:28:34;19.57;;;11.50;;
12814;SDS011;6472;52.328;13.070;2024-03-22T09:31:03;19.57;;;11.77;;
12814;SDS011;6472;52.328;13.070;2024-03-22T09:33:32;16.50;;;10.27;;
12814;SDS011;6472;52.328;13.070;2024-03-22T09:35:58;15.33;;;10.13;;
12814;SDS011;6472;52.328;13.070;2024-03-22T09:38:25;17.40;;;10.77;;
12814;SDS011;6472;52.328;13.070;2024-03-22T09:40:51;16.67;;;10.77;;
12814;SDS011;6472;52.328;13.070;2024-03-22T09:43:20;19.13;;;10.60;;
12814;SDS011;6472;52.328;13.070;2024-03-22T09:45:47;17.47;;;10.37;;
12814;SDS011;6472;52.328;13.070;2024-03-22T09:48:14;15.20;;;9.83;;
12814;SDS011;6472;52.328;13.070;2024-03-22T09:50:44;14.33;;;9.50;;
12814;SDS011;6472;52.328;13.070;2024-03-22T09:53:12;14.97;;;10.10;;
12814;SDS011;6472;52.328;13.070;2024-03-22T09:55:39;16.80;;;10.57;;
12814;SDS011;6472;52.328;13.070;2024-03-22T09:58:08;14.20;;;9.80;;
12814;SDS011;6472;52.328;13.070;2024-03-22T10:00:34;19.17;;;10.30;;
12814;SDS011;6472;52.328;13.070;2024-03-22T10:03:01;13.90;;;9.07;;
12814;SDS011;6472;52.328;13.070;2024-03-22T10:05:29;17.27;;;10.60;;
12814;SDS011;6472;52.328;13.070;2024-03-22T10:07:58;19.13;;;10.30;;
12814;SDS011;6472;52.328;13.070;2024-03-22T10:10:24;15.37;;;9.80;;
12814;SDS011;6472;52.328;13.070;2024-03-22T10:12:51;14.93;;;10.20;;
12814;SDS011;6472;52.328;13.070;2024-03-22T10:15:18;16.17;;;10.30;;
12814;SDS011;6472;52.328;13.070;2024-03-22T10:17:46;20.87;;;11.10;;
12814;SDS011;6472;52.328;13.070;2024-03-22T10:20:12;17.60;;;10.57;;
12814;SDS011;6472;52.328;13.070;2024-03-22T10:22:41;19.83;;;11.90;;
12814;SDS011;6472;52.328;13.070;2024-03-22T10:25:09;18.70;;;10.80;;
12814;SDS011;6472;52.328;13.070;2024-03-22T10:27:38;21.63;;;11.40;;
12814;SDS011;6472;52.328;13.070;2024-03-22T10:30:05;16.53;;;10.93;;
12814;SDS011;6472;52.328;13.070;2024-03-22T10:32:36;18.43;;;10.97;;
12814;SDS011;6472;52.328;13.070;2024-03-22T10:35:02;16.43;;;10.10;;
12814;SDS011;6472;52.328;13.070;2024-03-22T10:37:32;15.90;;;9.57;;
12814;SDS011;6472;52.328;13.070;2024-03-22T10:39:58;18.63;;;10.23;;
12814;SDS011;6472;52.328;13.070;2024-03-22T10:42:34;18.87;;;11.23;;
12814;SDS011;6472;52.328;13.070;2024-03-22T10:45:00;15.33;;;10.23;;
12814;SDS011;6472;52.328;13.070;2024-03-22T10:47:29;15.37;;;10.07;;
12814;SDS011;6472;52.328;13.070;2024-03-22T10:49:56;20.80;;;11.33;;
12814;SDS011;6472;52.328;13.070;2024-03-22T10:52:30;17.00;;;10.60;;
12814;SDS011;6472;52.328;13.070;2024-03-22T10:54:59;13.27;;;9.30;;
12814;SDS011;6472;52.328;13.070;2024-03-22T10:57:29;16.17;;;9.90;;
12814;SDS011;6472;52.328;13.070;2024-03-22T10:59:58;16.77;;;10.30;;
12814;SDS011;6472;52.328;13.070;2024-03-22T11:02:25;18.53;;;11.03;;
12814;SDS011;6472;52.328;13.070;2024-03-22T11:04:54;16.37;;;9.27;;
12814;SDS011;6472;52.328;13.070;2024-03-22T11:07:23;17.50;;;10.80;;
12814;SDS011;6472;52.328;13.070;2024-03-22T11:09:53;18.33;;;10.43;;
12814;SDS011;6472;52.328;13.070;2024-03-22T11:12:23;20.17;;;10.20;;
12814;SDS011;6472;52.328;13.070;2024-03-22T11:14:50;16.73;;;11.33;;
12814;SDS011;6472;52.328;13.070;2024-03-22T11:17:19;15.90;;;9.90;;
12814;SDS011;6472;52.328;13.070;2024-03-22T11:19:48;17.17;;;10.97;;
12814;SDS011;6472;52.328;13.070;2024-03-22T11:22:15;19.73;;;11.10;;
12814;SDS011;6472;52.328;13.070;2024-03-22T11:24:41;18.80;;;10.67;;
12814;SDS011;6472;52.328;13.070;2024-03-22T11:27:08;18.33;;;10.23;;
12814;SDS011;6472;52.328;13.070;2024-03-22T11:29:36;20.37;;;11.10;;
12814;SDS011;6472;52.328;13.070;2024-03-22T11:32:04;17.23;;;11.00;;
12814;SDS011;6472;52.328;13.070;2024-03-22T11:34:32;19.23;;;11.63;;
12814;SDS011;6472;52.328;13.070;2024-03-22T11:37:00;16.27;;;11.07;;
12814;SDS011;6472;52.328;13.070;2024-03-22T11:39:26;16.63;;;10.70;;
12814;SDS011;6472;52.328;13.070;2024-03-22T11:41:53;17.93;;;10.70;;
12814;SDS011;6472;52.328;13.070;2024-03-22T11:44:19;16.27;;;10.30;;
12814;SDS011;6472;52.328;13.070;2024-03-22T11:46:51;16.77;;;9.60;;
12814;SDS011;6472;52.328;13.070;2024-03-22T11:49:18;17.57;;;10.37;;
12814;SDS011;6472;52.328;13.070;2024-03-22T11:51:46;18.27;;;10.73;;
12814;SDS011;6472;52.328;13.070;2024-03-22T11:54:12;16.47;;;10.00;;
12814;SDS011;6472;52.328;13.070;2024-03-22T11:56:40;16.67;;;9.30;;
12814;SDS011;6472;52.328;13.070;2024-03-22T11:59:06;14.07;;;8.97;;
12814;SDS011;6472;52.328;13.070;2024-03-22T12:01:33;16.37;;;10.67;;
12814;SDS011;6472;52.328;13.070;2024-03-22T12:03:59;17.40;;;10.10;;
12814;SDS011;6472;52.328;13.070;2024-03-22T12:06:26;17.67;;;9.67;;
12814;SDS011;6472;52.328;13.070;2024-03-22T12:08:54;17.10;;;9.40;;
12814;SDS011;6472;52.328;13.070;2024-03-22T12:11:21;17.17;;;10.57;;
12814;SDS011;6472;52.328;13.070;2024-03-22T12:13:47;19.73;;;10.53;;
12814;SDS011;6472;52.328;13.070;2024-03-22T12:16:14;20.30;;;9.53;;
12814;SDS011;6472;52.328;13.070;2024-03-22T12:18:40;17.77;;;10.70;;
12814;SDS011;6472;52.328;13.070;2024-03-22T12:21:07;21.67;;;11.60;;
12814;SDS011;6472;52.328;13.070;2024-03-22T12:23:33;18.43;;;10.23;;
12814;SDS011;6472;52.328;13.070;2024-03-22T12:26:02;18.60;;;10.57;;
12814;SDS011;6472;52.328;13.070;2024-03-22T12:28:28;18.20;;;10.83;;
12814;SDS011;6472;52.328;13.070;2024-03-22T12:30:55;22.40;;;11.77;;
12814;SDS011;6472;52.328;13.070;2024-03-22T12:33:21;20.57;;;10.37;;
12814;SDS011;6472;52.328;13.070;2024-03-22T12:35:48;19.97;;;9.93;;
12814;SDS011;6472;52.328;13.070;2024-03-22T12:38:14;19.13;;;10.80;;
12814;SDS011;6472;52.328;13.070;2024-03-22T12:40:41;16.83;;;9.50;;
12814;SDS011;6472;52.328;13.070;2024-03-22T12:43:09;18.27;;;11.03;;
12814;SDS011;6472;52.328;13.070;2024-03-22T12:45:37;17.43;;;9.77;;
12814;SDS011;6472;52.328;13.070;2024-03-22T12:48:04;16.97;;;9.43;;
12814;SDS011;6472;52.328;13.070;2024-03-22T12:50:31;17.00;;;9.63;;
12814;SDS011;6472;52.328;13.070;2024-03-22T12:52:59;15.70;;;9.60;;
12814;SDS011;6472;52.328;13.070;2024-03-22T12:55:26;16.80;;;9.63;;
12814;SDS011;6472;52.328;13.070;2024-03-22T12:57:53;17.67;;;10.70;;
12814;SDS011;6472;52.328;13.070;2024-03-22T13:00:22;17.57;;;9.10;;
12814;SDS011;6472;52.328;13.070;2024-03-22T13:02:48;17.67;;;10.73;;
12814;SDS011;6472;52.328;13.070;2024-03-22T13:05:15;15.97;;;10.87;;
12814;SDS011;6472;52.328;13.070;2024-03-22T13:07:42;17.87;;;11.13;;
12814;SDS011;6472;52.328;13.070;2024-03-22T13:10:09;17.60;;;10.63;;
12814;SDS011;6472;52.328;13.070;2024-03-22T13:12:35;18.20;;;10.53;;
12814;SDS011;6472;52.328;13.070;2024-03-22T13:15:02;18.87;;;10.60;;
12814;SDS011;6472;52.328;13.070;2024-03-22T13:17:31;21.67;;;11.37;;
12814;SDS011;6472;52.328;13.070;2024-03-22T13:19:58;19.10;;;10.73;;
12814;SDS011;6472;52.328;13.070;2024-03-22T13:22:25;20.73;;;12.00;;
12814;SDS011;6472;52.328;13.070;2024-03-22T13:24:52;22.40;;;11.37;;
12814;SDS011;6472;52.328;13.070;2024-03-22T13:27:18;21.57;;;10.97;;
12814;SDS011;6472;52.328;13.070;2024-03-22T13:29:48;18.23;;;11.03;;
12814;SDS011;6472;52.328;13.070;2024-03-22T13:32:14;20.43;;;13.07;;
12814;SDS011;6472;52.328;13.070;2024-03-22T13:34:43;20.20;;;12.07;;
12814;SDS011;6472;52.328;13.070;2024-03-22T13:37:09;21.90;;;12.53;;
12814;SDS011;6472;52.328;13.070;2024-03-22T13:39:36;19.33;;;12.27;;
12814;SDS011;6472;52.328;13.070;2024-03-22T13:42:02;22.17;;;12.70;;
12814;SDS011;6472;52.328;13.070;2024-03-22T13:44:31;19.67;;;11.40;;
12814;SDS011;6472;52.328;13.070;2024-03-22T13:46:58;24.57;;;11.73;;
12814;SDS011;6472;52.328;13.070;2024-03-22T13:49:25;23.90;;;12.27;;
12814;SDS011;6472;52.328;13.070;2024-03-22T13:51:53;26.73;;;13.57;;
12814;SDS011;6472;52.328;13.070;2024-03-22T13:54:20;22.83;;;13.70;;
12814;SDS011;6472;52.328;13.070;2024-03-22T13:56:47;23.70;;;12.90;;
12814;SDS011;6472;52.328;13.070;2024-03-22T13:59:14;30.20;;;14.10;;
12814;SDS011;6472;52.328;13.070;2024-03-22T14:01:41;24.97;;;14.13;;
12814;SDS011;6472;52.328;13.070;2024-03-22T14:04:10;25.70;;;14.97;;
12814;SDS011;6472;52.328;13.070;2024-03-22T14:06:37;26.60;;;13.53;;
12814;SDS011;6472;52.328;13.070;2024-03-22T14:09:06;28.30;;;13.93;;
12814;SDS011;6472;52.328;13.070;2024-03-22T14:11:35;22.97;;;13.03;;
12814;SDS011;6472;52.328;13.070;2024-03-22T14:14:02;23.93;;;13.23;;
12814;SDS011;6472;52.328;13.070;2024-03-22T14:16:29;22.83;;;12.70;;
12814;SDS011;6472;52.328;13.070;2024-03-22T14:18:56;25.53;;;14.57;;
12814;SDS011;6472;52.328;13.070;2024-03-22T14:21:22;25.13;;;13.00;;